createdAt,value
2022-10-06T00:03:09.547Z,1004.26
2022-10-06T00:13:15.407Z,1004.29
2022-10-06T00:23:21.177Z,1004.18
2022-10-06T00:33:27.125Z,1004.22
2022-10-06T00:43:33.139Z,1004.50
2022-10-06T00:53:39.265Z,1004.52
2022-10-06T01:03:44.923Z,1004.57
2022-10-06T01:13:52.686Z,1004.65
2022-10-06T01:23:58.790Z,1004.57
2022-10-06T01:34:05.018Z,1004.66
2022-10-06T01:44:11.015Z,1004.52
2022-10-06T01:54:18.620Z,1004.39
2022-10-06T02:04:24.801Z,1004.72
2022-10-06T02:14:32.993Z,1004.88
2022-10-06T02:24:39.377Z,1004.88
2022-10-06T02:34:45.641Z,1005.00
2022-10-06T02:44:51.750Z,1005.11
2022-10-06T02:54:57.856Z,1005.44
2022-10-06T03:05:04.253Z,1005.59
2022-10-06T03:15:10.479Z,1005.76
2022-10-06T03:25:16.571Z,1005.90
2022-10-06T03:35:22.496Z,1006.06
2022-10-06T03:45:28.774Z,1006.27
2022-10-06T03:55:36.432Z,1006.39
2022-10-06T04:05:42.196Z,1006.47
2022-10-06T04:15:48.447Z,1006.54
2022-10-06T04:25:56.049Z,1006.71
2022-10-06T04:36:02.223Z,1006.98
2022-10-06T04:46:30.238Z,1007.15
2022-10-06T04:56:19.524Z,1007.46
2022-10-06T05:06:25.404Z,1007.92
2022-10-06T05:16:31.335Z,1008.13
2022-10-06T05:26:37.357Z,1008.48
2022-10-06T05:36:43.203Z,1008.78
2022-10-06T05:46:49.626Z,1009.08
2022-10-06T05:56:55.454Z,1009.17
2022-10-06T06:07:01.522Z,1009.20
2022-10-06T06:17:07.468Z,1009.50
2022-10-06T06:27:12.996Z,1009.85
2022-10-06T06:37:19.025Z,1010.01
2022-10-06T06:47:26.715Z,1010.24
2022-10-06T06:57:35.035Z,1010.61
2022-10-06T07:07:41.128Z,1010.83
2022-10-06T07:17:47.360Z,1011.03
2022-10-06T07:27:53.651Z,1011.21
2022-10-06T07:37:59.390Z,1011.28
2022-10-06T07:48:05.269Z,1011.47
2022-10-06T07:58:11.222Z,1011.67
2022-10-06T08:08:17.219Z,1011.73
2022-10-06T08:18:44.306Z,1012.00
2022-10-06T08:28:34.185Z,1012.22
2022-10-06T08:38:42.384Z,1012.16
2022-10-06T08:48:48.586Z,1012.30
2022-10-06T08:58:54.821Z,1012.18
2022-10-06T09:09:01.069Z,1012.34
2022-10-06T09:19:09.344Z,1012.40
2022-10-06T09:29:15.828Z,1012.36
2022-10-06T09:39:21.920Z,1012.45
2022-10-06T09:49:28.512Z,1012.50
2022-10-06T09:59:39.781Z,1012.57
2022-10-06T10:09:46.179Z,1012.63
2022-10-06T10:19:52.279Z,1012.79
2022-10-06T10:29:58.677Z,1012.89
2022-10-06T10:40:05.209Z,1012.83
2022-10-06T10:50:11.611Z,1012.85
2022-10-06T11:00:19.379Z,1012.87
2022-10-06T11:10:25.616Z,1012.92
2022-10-06T11:20:31.751Z,1012.95
2022-10-06T11:30:37.868Z,1012.81
2022-10-06T11:40:44.016Z,1012.73
2022-10-06T11:50:50.535Z,1012.64
2022-10-06T12:00:56.505Z,1012.69
2022-10-06T12:11:02.469Z,1012.69
2022-10-06T12:21:08.632Z,1012.62
2022-10-06T12:31:18.289Z,1012.66
2022-10-06T12:41:24.619Z,1012.64
2022-10-06T12:51:30.536Z,1012.48
2022-10-06T13:01:36.998Z,1012.52
2022-10-06T13:11:43.342Z,1012.49
2022-10-06T13:21:50.129Z,1012.43
2022-10-06T13:31:56.637Z,1012.39
2022-10-06T13:42:04.536Z,1012.37
2022-10-06T13:52:12.933Z,1012.47
2022-10-06T14:02:19.847Z,1012.43
2022-10-06T14:12:26.304Z,1012.50
2022-10-06T14:22:32.512Z,1012.42
2022-10-06T14:32:38.535Z,1012.42
2022-10-06T14:42:45.041Z,1012.47
2022-10-06T14:52:50.793Z,1012.39
2022-10-06T15:02:58.621Z,1012.48
2022-10-06T15:13:04.813Z,1012.39
2022-10-06T15:23:10.853Z,1012.44
2022-10-06T15:33:16.903Z,1012.42
2022-10-06T15:43:24.679Z,1012.53
2022-10-06T15:53:30.744Z,1012.43
2022-10-06T16:03:40.974Z,1012.52
2022-10-06T16:13:47.387Z,1012.49
2022-10-06T16:23:53.288Z,1012.59
2022-10-06T16:33:58.729Z,1012.56
2022-10-06T16:44:04.751Z,1012.70
2022-10-06T16:54:10.348Z,1012.86
2022-10-06T17:04:16.170Z,1012.94
2022-10-06T17:14:21.913Z,1013.11
2022-10-06T17:24:29.831Z,1013.18
2022-10-06T17:34:36.009Z,1013.15
2022-10-06T17:44:43.361Z,1013.24
2022-10-06T17:54:49.415Z,1013.31
2022-10-06T18:04:55.411Z,1013.26
2022-10-06T18:15:01.563Z,1013.33
2022-10-06T18:25:09.482Z,1013.41
2022-10-06T18:45:26.212Z,1013.49
2022-10-06T18:55:32.509Z,1013.54
2022-10-06T19:05:38.726Z,1013.62
2022-10-06T19:15:44.481Z,1013.70
2022-10-06T19:25:50.799Z,1013.69
2022-10-06T19:35:56.776Z,1013.76
2022-10-06T19:46:03.128Z,1013.74
2022-10-06T19:56:09.307Z,1013.77
2022-10-06T20:06:16.883Z,1013.87
2022-10-06T20:16:23.104Z,1013.86
2022-10-06T20:26:29.500Z,1013.94
2022-10-06T20:36:35.212Z,1013.93
2022-10-06T20:46:42.794Z,1013.98
2022-10-06T20:56:48.821Z,1013.92
2022-10-06T21:06:54.726Z,1013.85
2022-10-06T21:17:00.927Z,1013.87
2022-10-06T21:27:07.140Z,1013.86
2022-10-06T21:37:12.974Z,1013.79
2022-10-06T21:47:19.300Z,1013.69
2022-10-06T21:57:25.609Z,1013.62
2022-10-06T22:07:31.617Z,1013.60
2022-10-06T22:17:37.935Z,1013.63
2022-10-06T22:27:44.352Z,1013.62
2022-10-06T22:37:50.667Z,1013.61
2022-10-06T22:47:58.599Z,1013.52
2022-10-06T22:58:05.251Z,1013.46
2022-10-06T23:08:13.095Z,1013.37
2022-10-06T23:18:19.717Z,1013.27
2022-10-06T23:28:26.257Z,1013.23
2022-10-06T23:38:32.350Z,1013.24
2022-10-06T23:48:40.508Z,1013.16
2022-10-06T23:58:46.618Z,1013.14
